createdAt,value
2023-02-11T00:01:13.016Z,62.84
2023-02-11T00:03:41.234Z,62.74
2023-02-11T00:06:10.724Z,62.73
2023-02-11T00:08:39.012Z,62.84
2023-02-11T00:11:07.292Z,62.74
2023-02-11T00:13:35.091Z,62.75
2023-02-11T00:16:08.273Z,62.75
2023-02-11T00:18:36.158Z,62.86
2023-02-11T00:21:08.169Z,62.69
2023-02-11T00:23:36.564Z,62.91
2023-02-11T00:26:11.075Z,62.84
2023-02-11T00:28:38.856Z,62.82
2023-02-11T00:31:09.545Z,62.77
2023-02-11T00:33:38.326Z,62.68
2023-02-11T00:36:11.446Z,62.88
2023-02-11T00:38:39.168Z,62.68
2023-02-11T00:41:07.114Z,62.76
2023-02-11T00:43:36.165Z,62.79
2023-02-11T00:46:04.304Z,62.85
2023-02-11T00:48:32.451Z,62.78
2023-02-11T00:51:03.416Z,62.84
2023-02-11T00:53:31.372Z,62.94
2023-02-11T00:56:00.467Z,62.95
2023-02-11T00:58:28.608Z,62.92
2023-02-11T01:00:56.564Z,63.06
2023-02-11T01:03:25.904Z,63.13
2023-02-11T01:05:53.848Z,63.12
2023-02-11T01:08:21.816Z,62.98
2023-02-11T01:10:56.107Z,63.04
2023-02-11T01:13:24.978Z,63.06
2023-02-11T01:15:55.921Z,62.93
2023-02-11T01:18:24.557Z,62.97
2023-02-11T01:20:53.424Z,62.99
2023-02-11T01:23:21.251Z,63.05
2023-02-11T01:25:49.466Z,63.06
2023-02-11T01:28:18.730Z,63.12
2023-02-11T01:30:46.908Z,63.02
2023-02-11T01:33:14.955Z,63.04
2023-02-11T01:35:43.208Z,62.93
2023-02-11T01:38:16.307Z,63.02
2023-02-11T01:40:48.559Z,62.99
2023-02-11T01:43:16.338Z,62.83
2023-02-11T01:45:57.995Z,62.94
2023-02-11T01:48:29.688Z,62.82
2023-02-11T01:51:04.649Z,62.82
2023-02-11T01:54:03.763Z,62.91
2023-02-11T01:56:51.127Z,62.75
2023-02-11T01:59:24.130Z,62.71
2023-02-11T02:01:56.880Z,62.70
2023-02-11T02:04:30.880Z,62.60
2023-02-11T02:07:06.200Z,62.76
2023-02-11T02:09:41.617Z,62.73
2023-02-11T02:12:09.378Z,62.66
2023-02-11T02:14:40.205Z,62.75
2023-02-11T02:17:10.140Z,62.53
2023-02-11T02:20:07.973Z,62.64
2023-02-11T02:23:09.329Z,62.67
2023-02-11T02:26:01.478Z,62.42
2023-02-11T02:28:46.681Z,62.49
2023-02-11T02:31:25.350Z,62.38
2023-02-11T02:34:00.293Z,62.24
2023-02-11T02:36:37.791Z,62.26
2023-02-11T02:39:10.380Z,62.14
2023-02-11T02:41:39.844Z,62.13
2023-02-11T02:44:08.686Z,62.01
2023-02-11T02:46:37.333Z,61.82
2023-02-11T02:49:12.115Z,61.94
2023-02-11T02:52:03.856Z,61.91
2023-02-11T02:54:52.981Z,61.82
2023-02-11T02:57:32.387Z,61.78
2023-02-11T03:00:14.909Z,61.84
2023-02-11T03:02:51.924Z,61.71
2023-02-11T03:05:30.209Z,61.82
2023-02-11T03:08:04.905Z,61.67
2023-02-11T03:10:36.816Z,61.74
2023-02-11T03:13:06.539Z,61.64
2023-02-11T03:15:40.242Z,61.73
2023-02-11T03:18:13.309Z,61.65
2023-02-11T03:20:44.690Z,61.71
2023-02-11T03:23:17.957Z,61.64
2023-02-11T03:25:51.918Z,61.67
2023-02-11T03:28:29.140Z,61.55
2023-02-11T03:31:09.421Z,61.78
2023-02-11T03:33:45.685Z,61.67
2023-02-11T03:36:18.494Z,61.63
2023-02-11T03:38:50.207Z,61.82
2023-02-11T03:41:22.290Z,61.65
2023-02-11T03:43:53.142Z,61.66
2023-02-11T03:46:25.087Z,62.02
2023-02-11T03:48:56.469Z,62.24
2023-02-11T03:51:26.871Z,62.02
2023-02-11T03:53:57.940Z,61.89
2023-02-11T03:56:30.802Z,61.86
2023-02-11T03:58:58.743Z,61.70
2023-02-11T04:01:26.615Z,61.67
2023-02-11T04:03:54.434Z,61.69
2023-02-11T04:06:22.507Z,61.47
2023-02-11T04:08:50.218Z,61.30
2023-02-11T04:11:17.916Z,61.21
2023-02-11T04:13:45.700Z,61.24
2023-02-11T04:16:13.545Z,61.06
2023-02-11T04:18:41.370Z,61.05
2023-02-11T04:21:09.098Z,61.00
2023-02-11T04:23:36.854Z,60.97
2023-02-11T04:26:05.001Z,60.91
2023-02-11T04:28:32.763Z,60.89
2023-02-11T04:31:00.646Z,60.90
2023-02-11T04:33:28.608Z,60.87
2023-02-11T04:35:56.304Z,60.86
2023-02-11T04:38:24.042Z,60.76
2023-02-11T04:40:51.775Z,60.69
2023-02-11T04:43:19.463Z,60.72
2023-02-11T04:45:47.218Z,60.67
2023-02-11T04:48:15.024Z,60.57
2023-02-11T04:50:42.732Z,60.52
2023-02-11T04:53:10.422Z,60.59
2023-02-11T04:55:38.119Z,60.34
2023-02-11T04:58:05.823Z,60.40
2023-02-11T05:00:33.605Z,60.45
2023-02-11T05:03:01.302Z,60.49
2023-02-11T05:05:29.076Z,60.44
2023-02-11T05:07:57.574Z,60.39
2023-02-11T05:10:25.336Z,60.40
2023-02-11T05:12:55.634Z,60.41
2023-02-11T05:15:23.686Z,60.40
2023-02-11T05:17:51.350Z,60.43
2023-02-11T05:20:19.724Z,60.39
2023-02-11T05:22:47.643Z,60.43
2023-02-11T05:25:15.421Z,60.32
2023-02-11T05:27:43.135Z,60.32
2023-02-11T05:30:13.137Z,60.35
2023-02-11T05:32:40.910Z,60.60
2023-02-11T05:35:09.111Z,60.79
2023-02-11T05:37:36.959Z,61.03
2023-02-11T05:40:06.444Z,60.86
2023-02-11T05:42:34.157Z,60.90
2023-02-11T05:45:02.089Z,60.73
2023-02-11T05:47:29.837Z,60.65
2023-02-11T05:49:57.546Z,60.65
2023-02-11T05:52:25.576Z,60.56
2023-02-11T05:54:53.307Z,60.37
2023-02-11T05:57:20.984Z,60.47
2023-02-11T05:59:48.700Z,60.50
2023-02-11T06:02:16.475Z,60.33
2023-02-11T06:04:44.777Z,60.33
2023-02-11T06:07:12.492Z,60.33
2023-02-11T06:09:40.294Z,60.33
2023-02-11T06:12:08.391Z,60.49
2023-02-11T06:14:36.585Z,60.56
2023-02-11T06:17:04.701Z,60.61
2023-02-11T06:19:32.966Z,60.62
2023-02-11T06:22:00.867Z,60.89
2023-02-11T06:24:51.372Z,60.83
2023-02-11T06:27:17.426Z,60.96
2023-02-11T06:29:45.793Z,60.92
2023-02-11T06:32:35.669Z,60.87
2023-02-11T06:35:01.715Z,60.91
2023-02-11T06:37:29.436Z,60.93
2023-02-11T06:39:57.128Z,61.04
2023-02-11T06:42:24.840Z,61.06
2023-02-11T06:44:52.569Z,60.99
2023-02-11T06:47:20.287Z,61.05
2023-02-11T06:49:49.042Z,61.00
2023-02-11T06:52:16.778Z,60.96
2023-02-11T06:54:44.498Z,61.09
2023-02-11T06:57:12.267Z,61.11
2023-02-11T06:59:42.342Z,61.15
2023-02-11T07:02:10.860Z,60.97
2023-02-11T07:04:38.764Z,61.05
2023-02-11T07:07:06.656Z,60.92
2023-02-11T07:09:35.517Z,60.94
2023-02-11T07:12:03.629Z,60.97
2023-02-11T07:14:31.752Z,60.81
2023-02-11T07:16:59.458Z,60.75
2023-02-11T07:19:27.267Z,60.74
2023-02-11T07:21:55.013Z,60.88
2023-02-11T07:24:22.750Z,60.95
2023-02-11T07:26:50.469Z,60.93
2023-02-11T07:29:18.188Z,60.88
2023-02-11T07:31:45.989Z,60.87
2023-02-11T07:34:13.786Z,60.95
2023-02-11T07:36:43.072Z,60.82
2023-02-11T07:39:10.866Z,60.68
2023-02-11T07:41:38.744Z,60.85
2023-02-11T07:44:07.164Z,60.67
2023-02-11T07:46:35.288Z,60.97
2023-02-11T07:49:03.312Z,60.96
2023-02-11T07:51:31.592Z,60.80
2023-02-11T07:54:00.422Z,60.79
2023-02-11T07:56:29.456Z,60.60
2023-02-11T07:59:01.052Z,60.70
2023-02-11T08:01:29.476Z,60.80
2023-02-11T08:03:59.543Z,60.55
2023-02-11T08:06:29.845Z,60.56
2023-02-11T08:08:57.633Z,60.83
2023-02-11T08:11:27.350Z,60.87
2023-02-11T08:13:56.615Z,60.75
2023-02-11T08:16:27.040Z,60.77
2023-02-11T08:18:57.979Z,60.88
2023-02-11T08:21:26.224Z,61.04
2023-02-11T08:23:54.589Z,61.01
2023-02-11T08:26:23.722Z,60.93
2023-02-11T08:28:53.513Z,61.01
2023-02-11T08:31:23.260Z,61.13
2023-02-11T08:33:52.618Z,61.12
2023-02-11T08:36:22.664Z,61.14
2023-02-11T08:38:50.816Z,61.08
2023-02-11T08:41:18.855Z,61.19
2023-02-11T08:43:47.198Z,61.40
2023-02-11T08:46:18.653Z,61.23
2023-02-11T08:48:47.333Z,61.49
2023-02-11T08:51:17.278Z,61.45
2023-02-11T08:53:45.737Z,61.53
2023-02-11T08:56:15.304Z,61.59
2023-02-11T08:58:43.657Z,61.94
2023-02-11T09:01:12.465Z,62.14
2023-02-11T09:03:40.330Z,62.54
2023-02-11T09:06:09.829Z,63.19
2023-02-11T09:08:39.272Z,63.56
2023-02-11T09:11:08.169Z,63.99
2023-02-11T09:13:36.482Z,65.09
2023-02-11T09:16:06.834Z,65.48
2023-02-11T09:18:34.697Z,65.68
2023-02-11T09:21:07.439Z,66.04
2023-02-11T09:23:35.982Z,65.86
2023-02-11T09:26:09.221Z,65.72
2023-02-11T09:28:37.449Z,66.55
2023-02-11T09:31:07.464Z,66.20
2023-02-11T09:33:35.887Z,66.30
2023-02-11T09:36:05.485Z,66.10
2023-02-11T09:38:34.073Z,66.59
2023-02-11T09:41:07.063Z,66.39
2023-02-11T09:43:43.662Z,66.67
2023-02-11T09:46:15.214Z,66.64
2023-02-11T09:48:46.256Z,66.42
2023-02-11T09:51:20.622Z,66.39
2023-02-11T09:53:53.043Z,66.34
2023-02-11T09:56:20.784Z,66.44
2023-02-11T09:58:48.578Z,66.55
2023-02-11T10:01:28.862Z,66.51
2023-02-11T10:04:04.292Z,66.69
2023-02-11T10:06:39.928Z,66.49
2023-02-11T10:09:23.393Z,66.32
2023-02-11T10:12:00.728Z,66.81
2023-02-11T10:14:51.798Z,66.82
2023-02-11T10:17:32.181Z,66.91
2023-02-11T10:20:18.206Z,66.90
2023-02-11T10:22:49.117Z,66.98
2023-02-11T10:25:23.160Z,66.82
2023-02-11T10:27:52.619Z,66.95
2023-02-11T10:30:25.971Z,67.14
2023-02-11T10:32:59.413Z,66.98
2023-02-11T10:35:27.374Z,66.92
2023-02-11T10:37:55.594Z,66.86
2023-02-11T10:40:25.368Z,67.02
2023-02-11T10:42:55.999Z,67.21
2023-02-11T10:45:30.151Z,67.12
2023-02-11T10:47:58.965Z,67.37
2023-02-11T10:50:28.515Z,67.30
2023-02-11T10:53:15.105Z,67.42
2023-02-11T10:55:51.285Z,67.46
2023-02-11T10:58:26.317Z,67.38
2023-02-11T11:00:56.041Z,67.57
2023-02-11T11:03:26.251Z,67.73
2023-02-11T11:05:58.565Z,67.71
2023-02-11T11:08:39.280Z,67.58
2023-02-11T11:11:09.313Z,67.68
2023-02-11T11:13:38.565Z,67.64
2023-02-11T11:16:32.821Z,67.98
2023-02-11T11:19:21.872Z,67.89
2023-02-11T11:21:51.485Z,67.90
2023-02-11T11:24:23.488Z,67.93
2023-02-11T11:26:54.504Z,67.95
2023-02-11T11:29:29.879Z,67.85
2023-02-11T11:32:00.649Z,67.97
2023-02-11T11:34:31.480Z,68.12
2023-02-11T11:37:01.718Z,68.44
2023-02-11T11:39:32.646Z,68.21
2023-02-11T11:42:02.583Z,68.13
2023-02-11T11:44:33.061Z,68.15
2023-02-11T11:47:32.792Z,68.12
2023-02-11T11:50:25.022Z,67.92
2023-02-11T11:53:00.553Z,67.96
2023-02-11T11:55:34.289Z,68.10
2023-02-11T11:58:02.314Z,67.90
2023-02-11T12:00:36.361Z,67.65
2023-02-11T12:03:32.310Z,67.67
2023-02-11T12:06:13.684Z,67.91
2023-02-11T12:08:52.106Z,67.75
2023-02-11T12:11:30.883Z,67.62
2023-02-11T12:14:12.040Z,67.76
2023-02-11T12:16:51.714Z,67.96
2023-02-11T12:19:40.184Z,67.88
2023-02-11T12:22:12.238Z,67.86
2023-02-11T12:25:02.658Z,67.82
2023-02-11T12:27:47.832Z,67.95
2023-02-11T12:30:38.497Z,67.92
2023-02-11T12:33:14.932Z,67.97
2023-02-11T12:35:54.577Z,67.69
2023-02-11T12:38:37.056Z,67.76
2023-02-11T12:41:42.405Z,67.74
2023-02-11T12:44:18.882Z,67.61
2023-02-11T12:46:55.217Z,67.51
2023-02-11T12:49:41.035Z,67.64
2023-02-11T12:52:22.959Z,67.72
2023-02-11T12:54:59.088Z,67.71
2023-02-11T12:57:28.908Z,67.80
2023-02-11T13:00:03.592Z,67.87
2023-02-11T13:02:39.540Z,68.02
2023-02-11T13:05:19.421Z,67.92
2023-02-11T13:07:49.271Z,67.89
2023-02-11T13:10:29.736Z,67.69
2023-02-11T13:13:17.251Z,67.93
2023-02-11T13:15:49.865Z,67.90
2023-02-11T13:18:36.564Z,67.89
2023-02-11T13:21:29.805Z,67.73
2023-02-11T13:24:06.204Z,67.91
2023-02-11T13:26:43.275Z,68.08
2023-02-11T13:29:22.176Z,67.96
2023-02-11T13:32:04.726Z,68.10
2023-02-11T13:34:56.955Z,68.25
2023-02-11T13:37:27.342Z,68.08
2023-02-11T13:40:00.332Z,68.24
2023-02-11T13:42:29.447Z,68.13
2023-02-11T13:44:57.794Z,68.21
2023-02-11T13:47:30.008Z,68.27
2023-02-11T13:49:59.282Z,68.27
2023-02-11T13:52:30.123Z,67.95
2023-02-11T13:55:06.531Z,68.15
2023-02-11T13:57:39.725Z,68.20
2023-02-11T14:00:47.839Z,68.13
2023-02-11T14:03:46.969Z,68.31
2023-02-11T14:06:36.549Z,68.13
2023-02-11T14:09:39.330Z,68.46
2023-02-11T14:12:30.455Z,68.60
2023-02-11T14:15:18.255Z,68.75
2023-02-11T14:17:46.147Z,68.72
2023-02-11T14:20:42.670Z,68.88
2023-02-11T14:23:25.144Z,68.74
2023-02-11T14:26:22.358Z,68.89
2023-02-11T14:29:00.612Z,69.13
2023-02-11T14:31:35.631Z,69.15
2023-02-11T14:34:31.130Z,69.21
2023-02-11T14:37:09.132Z,69.57
2023-02-11T14:39:53.378Z,69.60
2023-02-11T14:42:26.255Z,69.91
2023-02-11T14:44:56.382Z,70.01
2023-02-11T14:47:29.245Z,69.97
2023-02-11T14:49:57.381Z,70.16
2023-02-11T14:52:29.333Z,70.38
2023-02-11T14:55:06.048Z,70.27
2023-02-11T14:57:34.526Z,70.72
2023-02-11T15:00:06.428Z,71.45
2023-02-11T15:02:38.185Z,71.48
2023-02-11T15:05:18.339Z,71.88
2023-02-11T15:07:48.368Z,72.06
2023-02-11T15:10:20.839Z,72.72
2023-02-11T15:12:49.937Z,72.84
2023-02-11T15:15:18.162Z,73.42
2023-02-11T15:17:46.810Z,73.47
2023-02-11T15:20:21.864Z,73.60
2023-02-11T15:22:55.075Z,73.65
2023-02-11T15:25:23.538Z,73.63
2023-02-11T15:27:53.383Z,74.13
2023-02-11T15:30:33.481Z,74.37
2023-02-11T15:33:04.781Z,74.55
2023-02-11T15:35:35.877Z,74.52
2023-02-11T15:38:04.748Z,74.24
2023-02-11T15:40:34.908Z,74.50
2023-02-11T15:43:04.524Z,74.45
2023-02-11T15:45:35.554Z,74.46
2023-02-11T15:48:09.229Z,74.41
2023-02-11T15:50:40.116Z,74.39
2023-02-11T15:53:22.985Z,74.65
2023-02-11T15:55:54.380Z,74.57
2023-02-11T15:58:23.607Z,74.31
2023-02-11T16:00:59.033Z,74.44
2023-02-11T16:03:31.914Z,74.17
2023-02-11T16:06:18.416Z,74.48
2023-02-11T16:08:58.655Z,74.32
2023-02-11T16:11:29.858Z,74.48
2023-02-11T16:14:00.078Z,74.66
2023-02-11T16:16:31.541Z,74.60
2023-02-11T16:19:06.006Z,74.77
2023-02-11T16:21:38.397Z,74.76
2023-02-11T16:24:17.432Z,74.49
2023-02-11T16:26:49.951Z,74.87
2023-02-11T16:29:23.069Z,74.78
2023-02-11T16:31:53.914Z,74.78
2023-02-11T16:34:23.635Z,74.87
2023-02-11T16:36:52.399Z,75.04
2023-02-11T16:39:21.836Z,75.13
2023-02-11T16:41:50.696Z,75.35
2023-02-11T16:44:18.466Z,75.13
2023-02-11T16:46:46.768Z,75.20
2023-02-11T16:49:21.262Z,75.22
2023-02-11T16:51:52.001Z,75.11
2023-02-11T16:54:20.185Z,74.93
2023-02-11T16:56:47.938Z,75.06
2023-02-11T16:59:15.932Z,75.36
2023-02-11T17:01:44.687Z,75.27
2023-02-11T17:04:18.798Z,75.39
2023-02-11T17:06:47.521Z,75.60
2023-02-11T17:09:19.890Z,75.42
2023-02-11T17:11:46.822Z,75.55
2023-02-11T17:14:15.057Z,75.48
2023-02-11T17:16:44.467Z,75.34
2023-02-11T17:19:14.686Z,75.41
2023-02-11T17:21:42.671Z,75.60
2023-02-11T17:24:10.962Z,75.51
2023-02-11T17:26:39.104Z,75.83
2023-02-11T17:29:08.564Z,75.89
2023-02-11T17:31:39.863Z,75.46
2023-02-11T17:34:08.850Z,75.63
2023-02-11T17:36:36.971Z,75.60
2023-02-11T17:39:08.095Z,75.54
2023-02-11T17:41:37.175Z,75.52
2023-02-11T17:44:06.271Z,75.72
2023-02-11T17:46:35.554Z,75.55
2023-02-11T17:49:03.711Z,75.52
2023-02-11T17:51:33.161Z,75.48
2023-02-11T17:54:03.104Z,75.54
2023-02-11T17:56:33.404Z,75.63
2023-02-11T17:59:02.237Z,75.83
2023-02-11T18:01:31.329Z,75.74
2023-02-11T18:03:59.228Z,75.68
2023-02-11T18:06:28.407Z,75.68
2023-02-11T18:08:59.016Z,75.74
2023-02-11T18:11:27.329Z,75.80
2023-02-11T18:13:55.075Z,75.76
2023-02-11T18:16:24.415Z,76.05
2023-02-11T18:18:52.516Z,75.72
2023-02-11T18:21:21.673Z,75.95
2023-02-11T18:23:50.365Z,76.11
2023-02-11T18:26:20.925Z,76.01
2023-02-11T18:28:48.778Z,76.30
2023-02-11T18:31:18.271Z,76.38
2023-02-11T18:33:47.201Z,76.33
2023-02-11T18:36:16.138Z,76.59
2023-02-11T18:38:44.073Z,76.76
2023-02-11T18:41:12.819Z,76.53
2023-02-11T18:43:42.283Z,76.92
2023-02-11T18:46:12.263Z,76.65
2023-02-11T18:48:40.420Z,76.89
2023-02-11T18:51:13.996Z,76.52
2023-02-11T18:53:42.436Z,76.88
2023-02-11T18:56:13.138Z,76.97
2023-02-11T18:58:41.133Z,76.80
2023-02-11T19:01:16.512Z,76.80
2023-02-11T19:03:45.284Z,76.98
2023-02-11T19:06:17.597Z,76.59
2023-02-11T19:08:44.470Z,76.75
2023-02-11T19:11:15.425Z,77.09
2023-02-11T19:13:43.215Z,76.84
2023-02-11T19:16:13.271Z,77.05
2023-02-11T19:18:41.372Z,76.99
2023-02-11T19:21:11.575Z,77.06
2023-02-11T19:23:39.735Z,77.14
2023-02-11T19:26:07.658Z,77.04
2023-02-11T19:28:36.254Z,77.31
2023-02-11T19:31:08.807Z,77.32
2023-02-11T19:33:37.079Z,77.33
2023-02-11T19:36:07.371Z,77.42
2023-02-11T19:38:35.761Z,77.39
2023-02-11T19:41:04.519Z,77.37
2023-02-11T19:43:32.541Z,77.22
2023-02-11T19:46:03.285Z,77.15
2023-02-11T19:48:31.943Z,77.29
2023-02-11T19:51:09.447Z,77.14
2023-02-11T19:53:38.549Z,77.20
2023-02-11T19:56:08.120Z,77.08
2023-02-11T19:58:37.085Z,77.10
2023-02-11T20:01:07.677Z,77.23
2023-02-11T20:03:36.485Z,77.27
2023-02-11T20:06:08.090Z,77.07
2023-02-11T20:08:36.050Z,77.06
2023-02-11T20:11:09.094Z,77.12
2023-02-11T20:13:38.565Z,77.04
2023-02-11T20:16:09.931Z,77.26
2023-02-11T20:18:38.335Z,77.35
2023-02-11T20:21:11.069Z,77.07
2023-02-11T20:23:40.115Z,77.02
2023-02-11T20:26:09.466Z,77.15
2023-02-11T20:28:37.824Z,77.10
2023-02-11T20:31:06.613Z,77.34
2023-02-11T20:33:34.682Z,77.17
2023-02-11T20:36:05.133Z,77.42
2023-02-11T20:38:33.125Z,77.45
2023-02-11T20:41:04.022Z,77.51
2023-02-11T20:43:31.757Z,77.58
2023-02-11T20:46:03.597Z,77.71
2023-02-11T20:48:31.851Z,77.67
2023-02-11T20:51:04.851Z,77.55
2023-02-11T20:53:35.039Z,77.45
2023-02-11T20:56:03.878Z,77.74
2023-02-11T20:58:32.041Z,77.66
2023-02-11T21:01:08.273Z,77.79
2023-02-11T21:03:36.097Z,77.78
2023-02-11T21:06:04.476Z,77.69
2023-02-11T21:08:32.195Z,77.75
2023-02-11T21:11:01.246Z,77.82
2023-02-11T21:13:29.161Z,77.79
2023-02-11T21:15:57.579Z,77.84
2023-02-11T21:18:26.005Z,77.80
2023-02-11T21:20:55.811Z,77.77
2023-02-11T21:23:24.166Z,77.74
2023-02-11T21:25:53.692Z,77.95
2023-02-11T21:28:25.580Z,77.84
2023-02-11T21:30:54.089Z,77.80
2023-02-11T21:33:22.970Z,78.00
2023-02-11T21:35:54.123Z,77.95
2023-02-11T21:38:22.699Z,77.63
2023-02-11T21:40:50.572Z,77.70
2023-02-11T21:43:18.377Z,77.80
2023-02-11T21:45:47.841Z,77.85
2023-02-11T21:48:16.741Z,77.66
2023-02-11T21:50:47.125Z,77.83
2023-02-11T21:53:15.397Z,77.66
2023-02-11T21:55:43.075Z,77.61
2023-02-11T21:58:12.734Z,77.85
2023-02-11T22:00:40.510Z,77.67
2023-02-11T22:03:08.590Z,77.68
2023-02-11T22:05:40.291Z,77.48
2023-02-11T22:08:08.006Z,77.63
2023-02-11T22:10:35.712Z,77.77
2023-02-11T22:13:03.448Z,77.70
2023-02-11T22:15:31.372Z,77.59
2023-02-11T22:17:59.093Z,77.67
2023-02-11T22:20:26.907Z,77.66
2023-02-11T22:22:54.706Z,77.57
2023-02-11T22:25:22.403Z,77.40
2023-02-11T22:27:50.218Z,77.46
2023-02-11T22:30:18.618Z,77.33
2023-02-11T22:32:46.779Z,77.31
2023-02-11T22:35:14.915Z,77.35
2023-02-11T22:37:42.690Z,77.25
2023-02-11T22:40:13.002Z,77.25
2023-02-11T22:42:40.751Z,77.36
2023-02-11T22:45:09.978Z,77.10
2023-02-11T22:47:38.286Z,76.96
2023-02-11T22:50:08.108Z,76.98
2023-02-11T22:52:36.164Z,76.93
2023-02-11T22:55:04.681Z,76.75
2023-02-11T22:57:32.439Z,76.80
2023-02-11T23:00:00.182Z,76.88
2023-02-11T23:02:27.903Z,77.16
2023-02-11T23:04:55.674Z,77.13
2023-02-11T23:07:23.645Z,77.16
2023-02-11T23:09:51.484Z,77.08
2023-02-11T23:12:19.277Z,77.09
2023-02-11T23:14:47.475Z,77.25
2023-02-11T23:17:15.176Z,77.28
2023-02-11T23:19:42.887Z,77.27
2023-02-11T23:22:10.595Z,77.24
2023-02-11T23:24:38.433Z,77.35
2023-02-11T23:27:06.680Z,77.36
2023-02-11T23:29:34.463Z,77.55
2023-02-11T23:32:02.248Z,77.58
2023-02-11T23:34:30.095Z,77.54
2023-02-11T23:36:59.026Z,77.49
2023-02-11T23:39:27.120Z,77.54
2023-02-11T23:41:58.312Z,77.70
2023-02-11T23:44:26.265Z,77.54
2023-02-11T23:46:54.214Z,77.50
2023-02-11T23:49:22.112Z,77.52
2023-02-11T23:51:49.911Z,77.55
2023-02-11T23:54:17.677Z,77.59
2023-02-11T23:56:45.414Z,77.54
2023-02-11T23:59:13.406Z,77.60
